createdAt,value
2022-09-09T00:00:02.663Z,1011.56
2022-09-09T00:05:02.727Z,1011.56
2022-09-09T00:10:02.907Z,1011.61
2022-09-09T00:15:03.255Z,1011.52
2022-09-09T00:20:02.561Z,1011.53
2022-09-09T00:25:03.704Z,1011.52
2022-09-09T00:30:10.454Z,1011.45
2022-09-09T00:35:02.967Z,1011.45
2022-09-09T00:40:02.364Z,1011.53
2022-09-09T00:45:03.380Z,1011.48
2022-09-09T00:50:02.521Z,1011.43
2022-09-09T00:55:04.277Z,1011.37
2022-09-09T01:00:02.475Z,1011.51
2022-09-09T01:05:03.117Z,1011.57
2022-09-09T01:10:02.862Z,1011.48
2022-09-09T01:15:03.693Z,1011.48
2022-09-09T01:20:03.135Z,1011.58
2022-09-09T01:25:03.171Z,1011.55
2022-09-09T01:30:02.573Z,1011.54
2022-09-09T01:35:02.853Z,1011.58
2022-09-09T01:40:03.155Z,1011.52
2022-09-09T01:45:03.257Z,1011.53
2022-09-09T01:50:02.217Z,1011.48
2022-09-09T01:55:04.112Z,1011.48
2022-09-09T02:00:02.577Z,1011.45
2022-09-09T02:05:02.471Z,1011.46
2022-09-09T02:10:02.817Z,1011.47
2022-09-09T02:15:02.888Z,1011.38
2022-09-09T02:20:03.516Z,1011.52
2022-09-09T02:25:03.306Z,1011.48
2022-09-09T02:30:02.639Z,1011.44
2022-09-09T02:35:02.631Z,1011.48
2022-09-09T02:40:02.950Z,1011.42
2022-09-09T02:45:03.107Z,1011.47
2022-09-09T02:50:02.309Z,1011.45
2022-09-09T02:55:04.488Z,1011.5
2022-09-09T03:00:02.583Z,1011.62
2022-09-09T03:05:02.869Z,1011.65
2022-09-09T03:10:03.410Z,1011.6
2022-09-09T03:15:02.778Z,1011.62
2022-09-09T03:20:03.430Z,1011.68
2022-09-09T03:25:02.959Z,1011.58
2022-09-09T03:30:02.408Z,1011.57
2022-09-09T03:35:03.409Z,1011.69
2022-09-09T03:40:02.811Z,1011.65
2022-09-09T03:45:02.725Z,1011.67
2022-09-09T03:50:03.037Z,1011.69
2022-09-09T03:55:03.836Z,1011.6
2022-09-09T04:00:02.907Z,1011.61
2022-09-09T04:05:03.111Z,1011.68
2022-09-09T04:10:03.007Z,1011.61
2022-09-09T04:15:02.390Z,1011.57
2022-09-09T04:20:03.437Z,1011.61
2022-09-09T04:25:02.331Z,1011.61
2022-09-09T04:30:03.198Z,1011.6
2022-09-09T04:35:02.414Z,1011.59
2022-09-09T04:40:03.010Z,1011.79
2022-09-09T04:45:02.906Z,1011.78
2022-09-09T04:50:02.803Z,1011.74
2022-09-09T04:55:03.353Z,1011.64
2022-09-09T05:00:03.374Z,1011.75
2022-09-09T05:05:03.160Z,1011.8
2022-09-09T05:10:02.378Z,1011.84
2022-09-09T05:15:03.101Z,1011.86
2022-09-09T05:20:04.739Z,1011.94
2022-09-09T05:25:02.940Z,1011.95
2022-09-09T05:30:02.289Z,1011.91
2022-09-09T05:35:02.961Z,1012.07
2022-09-09T05:40:02.550Z,1011.97
2022-09-09T05:45:03.237Z,1012.02
2022-09-09T05:50:02.896Z,1012.1
2022-09-09T05:55:03.864Z,1012.08
2022-09-09T06:00:02.404Z,1012.13
2022-09-09T06:05:03.503Z,1012.09
2022-09-09T06:10:02.791Z,1012.06
2022-09-09T06:15:03.150Z,1012.17
2022-09-09T06:20:02.821Z,1012.22
2022-09-09T06:25:03.070Z,1012.25
2022-09-09T06:30:03.437Z,1012.23
2022-09-09T06:35:02.917Z,1012.04
2022-09-09T06:40:03.185Z,1012.09
2022-09-09T06:45:03.035Z,1012.14
2022-09-09T06:50:02.230Z,1012.14
2022-09-09T06:55:04.199Z,1012.15
2022-09-09T07:00:02.485Z,1012.1
2022-09-09T07:05:03.086Z,1012.26
2022-09-09T07:10:02.874Z,1012.35
2022-09-09T07:15:02.811Z,1012.32
2022-09-09T07:20:03.074Z,1012.38
2022-09-09T07:25:03.016Z,1012.37
2022-09-09T07:30:02.306Z,1012.35
2022-09-09T07:35:03.020Z,1012.45
2022-09-09T07:40:02.679Z,1012.5
2022-09-09T07:45:02.770Z,1012.45
2022-09-09T07:50:03.426Z,1012.43
2022-09-09T07:55:03.869Z,1012.35
2022-09-09T08:00:03.563Z,1012.39
2022-09-09T08:05:03.326Z,1012.32
2022-09-09T08:10:02.517Z,1012.3
2022-09-09T08:15:02.856Z,1012.34
2022-09-09T08:20:03.614Z,1012.38
2022-09-09T08:25:03.005Z,1012.38
2022-09-09T08:30:02.557Z,1012.32
2022-09-09T08:35:08.464Z,1012.44
2022-09-09T08:40:02.825Z,1012.42
2022-09-09T08:45:02.422Z,1012.52
2022-09-09T08:50:03.490Z,1012.42
2022-09-09T08:55:04.309Z,1012.46
2022-09-09T09:00:02.882Z,1012.44
2022-09-09T09:05:03.147Z,1012.45
2022-09-09T09:10:05.037Z,1012.44
2022-09-09T09:15:02.374Z,1012.34
2022-09-09T09:20:02.919Z,1012.33
2022-09-09T09:25:02.662Z,1012.33
2022-09-09T09:30:31.207Z,1012.44
2022-09-09T09:35:02.440Z,1012.45
2022-09-09T09:45:03.448Z,1012.46
2022-09-09T09:50:02.863Z,1012.45
2022-09-09T09:55:08.086Z,1012.5
2022-09-09T10:00:02.462Z,1012.37
2022-09-09T10:05:03.154Z,1012.45
2022-09-09T10:10:02.885Z,1012.37
2022-09-09T10:15:03.096Z,1012.4
2022-09-09T10:20:02.727Z,1012.4
2022-09-09T10:25:02.996Z,1012.39
2022-09-09T10:30:02.708Z,1012.31
2022-09-09T10:35:03.360Z,1012.34
2022-09-09T10:40:03.222Z,1012.38
2022-09-09T10:45:02.261Z,1012.2
2022-09-09T10:50:03.110Z,1012.26
2022-09-09T10:55:04.177Z,1012.22
2022-09-09T11:00:02.895Z,1012.17
2022-09-09T11:05:03.505Z,1012.21
2022-09-09T11:10:02.554Z,1012.13
2022-09-09T11:15:02.788Z,1012.09
2022-09-09T11:20:03.504Z,1012.05
2022-09-09T11:25:03.299Z,1011.97
2022-09-09T11:30:02.245Z,1011.97
2022-09-09T11:35:03.308Z,1011.96
2022-09-09T11:40:03.468Z,1011.91
2022-09-09T11:45:02.449Z,1011.92
2022-09-09T11:50:02.692Z,1011.81
2022-09-09T11:55:04.370Z,1011.89
2022-09-09T12:00:02.965Z,1011.79
2022-09-09T12:05:02.233Z,1011.8
2022-09-09T12:10:03.346Z,1011.88
2022-09-09T12:15:02.613Z,1011.81
2022-09-09T12:20:02.746Z,1011.75
2022-09-09T12:25:03.425Z,1011.58
2022-09-09T12:30:03.012Z,1011.56
2022-09-09T12:35:02.225Z,1011.73
2022-09-09T12:40:03.610Z,1011.69
2022-09-09T12:45:02.650Z,1011.63
2022-09-09T12:50:02.796Z,1011.61
2022-09-09T12:55:04.104Z,1011.68
2022-09-09T13:00:03.178Z,1011.73
2022-09-09T13:05:03.552Z,1011.6
2022-09-09T13:10:02.687Z,1011.53
2022-09-09T13:15:03.628Z,1011.49
2022-09-09T13:20:03.390Z,1011.54
2022-09-09T13:25:02.607Z,1011.44
2022-09-09T13:30:02.779Z,1011.5
2022-09-09T13:35:03.384Z,1011.27
2022-09-09T13:40:02.677Z,1011.22
2022-09-09T13:45:02.754Z,1011.24
2022-09-09T13:50:02.929Z,1011.27
2022-09-09T13:55:03.610Z,1011.23
2022-09-09T14:00:07.114Z,1011.22
2022-09-09T14:05:02.563Z,1011.26
2022-09-09T14:10:03.104Z,1011.21
2022-09-09T14:15:03.119Z,1011.28
2022-09-09T14:20:03.230Z,1011.14
2022-09-09T14:25:02.899Z,1011.23
2022-09-09T14:30:03.679Z,1011.32
2022-09-09T14:35:02.543Z,1011.17
2022-09-09T14:40:02.286Z,1011.24
2022-09-09T14:45:03.014Z,1011.19
2022-09-09T14:50:02.526Z,1010.95
2022-09-09T14:55:03.561Z,1011.06
2022-09-09T15:00:03.510Z,1011.14
2022-09-09T15:05:02.865Z,1011.17
2022-09-09T15:10:02.391Z,1011.25
2022-09-09T15:15:03.054Z,1011.1
2022-09-09T15:20:02.610Z,1011.14
2022-09-09T15:25:03.515Z,1011.1
2022-09-09T15:30:02.650Z,1011.55
2022-09-09T15:35:02.771Z,1011.31
2022-09-09T15:40:03.028Z,1011.37
2022-09-09T15:45:03.207Z,1011.34
2022-09-09T15:50:02.392Z,1011.53
2022-09-09T15:55:04.146Z,1011.35
2022-09-09T16:00:02.645Z,1011.31
2022-09-09T16:05:02.561Z,1011.3
2022-09-09T16:10:02.928Z,1011.31
2022-09-09T16:15:03.024Z,1011.37
2022-09-09T16:20:02.266Z,1011.46
2022-09-09T16:25:02.944Z,1011.45
2022-09-09T16:30:02.573Z,1011.6
2022-09-09T16:35:04.234Z,1011.57
2022-09-09T16:40:02.800Z,1011.47
2022-09-09T16:45:03.053Z,1011.43
2022-09-09T16:50:02.774Z,1011.25
2022-09-09T16:55:04.576Z,1011.29
2022-09-09T17:00:03.005Z,1011.38
2022-09-09T17:05:02.340Z,1011.46
2022-09-09T17:10:02.615Z,1011.37
2022-09-09T17:15:02.849Z,1011.34
2022-09-09T17:20:02.921Z,1011.36
2022-09-09T17:25:02.950Z,1011.32
2022-09-09T17:30:03.085Z,1011.4
2022-09-09T17:35:03.301Z,1011.23
2022-09-09T17:40:02.564Z,1011.17
2022-09-09T17:45:02.637Z,1011.23
2022-09-09T17:50:02.343Z,1011.32
2022-09-09T17:55:04.591Z,1011.3
2022-09-09T18:00:02.749Z,1011.43
2022-09-09T18:05:02.402Z,1011.48
2022-09-09T18:10:03.064Z,1011.56
2022-09-09T18:15:04.190Z,1011.65
2022-09-09T18:20:02.878Z,1011.6
2022-09-09T18:25:03.085Z,1011.74
2022-09-09T18:30:03.163Z,1011.83
2022-09-09T18:35:02.504Z,1011.84
2022-09-09T18:40:03.848Z,1011.88
2022-09-09T18:45:02.815Z,1011.9
2022-09-09T18:50:02.828Z,1012.08
2022-09-09T18:55:04.318Z,1012.13
2022-09-09T19:00:03.247Z,1012.17
2022-09-09T19:05:02.601Z,1012.14
2022-09-09T19:10:03.259Z,1012.22
2022-09-09T19:15:02.908Z,1012.28
2022-09-09T19:20:04.066Z,1012.31
2022-09-09T19:25:02.259Z,1012.34
2022-09-09T19:30:03.337Z,1012.44
2022-09-09T19:35:02.518Z,1012.54
2022-09-09T19:40:03.106Z,1012.66
2022-09-09T19:45:03.195Z,1012.62
2022-09-09T19:50:03.555Z,1012.68
2022-09-09T19:55:03.840Z,1012.65
2022-09-09T20:00:03.463Z,1012.71
2022-09-09T20:05:02.661Z,1012.67
2022-09-09T20:10:02.725Z,1012.62
2022-09-09T20:15:02.996Z,1012.61
2022-09-09T20:20:03.107Z,1012.65
2022-09-09T20:25:02.483Z,1012.68
2022-09-09T20:30:03.375Z,1012.74
2022-09-09T20:35:02.815Z,1012.66
2022-09-09T20:40:03.117Z,1012.81
2022-09-09T20:45:03.145Z,1012.78
2022-09-09T20:50:03.159Z,1012.71
2022-09-09T20:55:04.020Z,1012.73
2022-09-09T21:00:03.560Z,1012.63
2022-09-09T21:05:02.790Z,1012.75
2022-09-09T21:10:02.882Z,1012.69
2022-09-09T21:15:03.216Z,1012.69
2022-09-09T21:20:03.298Z,1012.74
2022-09-09T21:25:02.484Z,1012.66
2022-09-09T21:30:03.574Z,1012.64
2022-09-09T21:35:03.212Z,1012.47
2022-09-09T21:40:02.469Z,1012.47
2022-09-09T21:45:03.491Z,1012.54
2022-09-09T21:50:02.631Z,1012.6
2022-09-09T21:55:03.579Z,1012.58
2022-09-09T22:00:03.087Z,1012.42
2022-09-09T22:05:03.146Z,1012.41
2022-09-09T22:10:02.808Z,1012.34
2022-09-09T22:15:03.200Z,1012.3
2022-09-09T22:20:03.249Z,1012.36
2022-09-09T22:25:02.442Z,1012.41
2022-09-09T22:30:03.552Z,1012.51
2022-09-09T22:35:02.712Z,1012.51
2022-09-09T22:40:03.032Z,1012.62
2022-09-09T22:45:03.073Z,1012.6
2022-09-09T22:50:03.065Z,1012.67
2022-09-09T22:55:04.349Z,1012.63
2022-09-09T23:00:03.361Z,1012.59
2022-09-09T23:05:02.521Z,1012.55
2022-09-09T23:10:02.698Z,1012.53
2022-09-09T23:15:03.036Z,1012.59
2022-09-09T23:20:03.475Z,1012.64
2022-09-09T23:25:02.712Z,1012.63
2022-09-09T23:30:02.757Z,1012.66
2022-09-09T23:35:02.959Z,1012.72
2022-09-09T23:40:03.188Z,1012.65
2022-09-09T23:45:02.268Z,1012.55
2022-09-09T23:50:03.492Z,1012.63
2022-09-09T23:55:03.887Z,1012.54
